createdAt,value
2019-04-22T00:00:41.301Z,21.65
2019-04-22T00:01:24.432Z,24.25
2019-04-22T00:02:03.912Z,25.77
2019-04-22T00:02:49.057Z,26.48
2019-04-22T00:03:22.663Z,24.10
2019-04-22T00:04:06.999Z,23.92
2019-04-22T00:04:50.882Z,22.82
2019-04-22T00:05:37.597Z,21.57
2019-04-22T00:06:21.007Z,21.57
2019-04-22T00:06:56.016Z,22.90
2019-04-22T00:07:42.252Z,24.07
2019-04-22T00:08:24.527Z,21.97
2019-04-22T00:09:12.529Z,21.48
2019-04-22T00:09:52.982Z,25.60
2019-04-22T00:10:32.648Z,21.55
2019-04-22T00:11:16.164Z,20.62
2019-04-22T00:11:54.912Z,19.37
2019-04-22T00:12:27.421Z,23.35
2019-04-22T00:13:11.224Z,20.05
2019-04-22T00:13:52.061Z,22.55
2019-04-22T00:14:26.790Z,22.45
2019-04-22T00:15:03.709Z,20.52
2019-04-22T00:15:43.860Z,23.18
2019-04-22T00:16:33.202Z,27.13
2019-04-22T00:17:16.415Z,24.37
2019-04-22T00:18:46.790Z,20.92
2019-04-22T00:20:00.661Z,21.82
2019-04-22T00:20:33.608Z,21.55
2019-04-22T00:21:22.129Z,22.98
2019-04-22T00:21:56.776Z,21.80
2019-04-22T00:22:31.732Z,20.10
2019-04-22T00:23:12.835Z,20.62
2019-04-22T00:23:59.880Z,21.27
2019-04-22T00:24:36.642Z,22.25
2019-04-22T00:25:31.012Z,23.90
2019-04-22T00:26:01.970Z,23.32
2019-04-22T00:26:44.217Z,22.48
2019-04-22T00:27:20.611Z,29.25
2019-04-22T00:28:04.997Z,22.22
2019-04-22T00:28:41.180Z,22.90
2019-04-22T00:29:38.958Z,20.02
2019-04-22T00:30:10.659Z,19.98
2019-04-22T00:30:36.065Z,22.75
2019-04-22T00:31:40.628Z,30.57
2019-04-22T00:32:28.333Z,21.45
2019-04-22T00:33:19.047Z,23.05
2019-04-22T00:33:52.961Z,22.73
2019-04-22T00:34:35.851Z,22.87
2019-04-22T00:35:12.983Z,27.05
2019-04-22T00:35:54.962Z,22.25
2019-04-22T00:36:40.369Z,25.25
2019-04-22T00:37:17.587Z,20.50
2019-04-22T00:38:07.712Z,21.52
2019-04-22T00:38:45.010Z,22.00
2019-04-22T00:39:21.648Z,24.25
2019-04-22T00:39:57.595Z,22.22
2019-04-22T00:40:39.688Z,21.30
2019-04-22T00:41:25.585Z,22.40
2019-04-22T00:42:01.803Z,20.60
2019-04-22T00:42:41.119Z,18.48
2019-04-22T00:43:22.707Z,21.65
2019-04-22T00:44:02.922Z,24.87
2019-04-22T00:44:43.220Z,22.15
2019-04-22T00:45:25.666Z,22.20
2019-04-22T00:45:56.215Z,20.62
2019-04-22T00:46:38.123Z,20.30
2019-04-22T00:47:23.277Z,21.93
2019-04-22T00:47:50.660Z,23.92
2019-04-22T00:48:32.243Z,25.57
2019-04-22T00:50:14.599Z,19.92
2019-04-22T00:50:55.254Z,22.05
2019-04-22T00:51:14.372Z,23.35
2019-04-22T00:51:58.336Z,23.47
2019-04-22T00:52:33.845Z,25.32
2019-04-22T00:53:19.781Z,23.52
2019-04-22T00:53:54.290Z,22.55
2019-04-22T00:54:43.439Z,26.57
2019-04-22T00:55:12.055Z,25.27
2019-04-22T00:56:11.184Z,28.20
2019-04-22T00:56:47.771Z,25.72
2019-04-22T00:57:30.827Z,23.02
2019-04-22T00:58:08.305Z,24.98
2019-04-22T00:58:45.369Z,23.85
2019-04-22T00:59:24.690Z,26.07
2019-04-22T01:00:06.999Z,23.32
2019-04-22T01:00:44.482Z,27.05
2019-04-22T01:01:28.854Z,27.90
2019-04-22T01:02:07.640Z,23.45
2019-04-22T01:02:49.665Z,26.77
2019-04-22T01:03:29.210Z,25.12
2019-04-22T01:04:49.142Z,28.00
2019-04-22T01:06:03.063Z,26.02
2019-04-22T01:06:38.534Z,22.22
2019-04-22T01:07:19.186Z,25.95
2019-04-22T01:08:09.784Z,22.30
2019-04-22T01:08:51.441Z,22.48
2019-04-22T01:09:19.761Z,24.07
2019-04-22T01:10:55.440Z,22.60
2019-04-22T01:11:25.173Z,20.75
2019-04-22T01:12:04.691Z,19.77
2019-04-22T01:12:41.435Z,23.20
2019-04-22T01:13:21.661Z,22.60
2019-04-22T01:13:55.824Z,18.92
2019-04-22T01:14:35.636Z,23.67
2019-04-22T01:15:23.693Z,21.97
2019-04-22T01:16:01.502Z,21.93
2019-04-22T01:16:37.964Z,22.40
2019-04-22T01:17:14.430Z,22.27
2019-04-22T01:17:57.920Z,19.98
2019-04-22T01:18:37.429Z,27.73
2019-04-22T01:19:14.743Z,22.25
2019-04-22T01:19:56.008Z,19.73
2019-04-22T01:21:50.771Z,22.50
2019-04-22T01:22:34.610Z,23.02
2019-04-22T01:23:12.741Z,24.98
2019-04-22T01:23:52.152Z,20.40
2019-04-22T01:24:32.745Z,22.98
2019-04-22T01:25:12.927Z,21.62
2019-04-22T01:25:55.286Z,21.35
2019-04-22T01:26:32.388Z,22.50
2019-04-22T01:27:10.522Z,25.88
2019-04-22T01:27:50.143Z,22.02
2019-04-22T01:28:27.955Z,23.32
2019-04-22T01:29:05.094Z,22.77
2019-04-22T01:29:46.955Z,20.65
2019-04-22T01:30:23.259Z,30.25
2019-04-22T01:31:04.802Z,22.10
2019-04-22T01:31:39.900Z,23.65
2019-04-22T01:32:22.861Z,24.32
2019-04-22T01:33:05.878Z,19.98
2019-04-22T01:33:40.840Z,21.05
2019-04-22T01:34:28.907Z,21.40
2019-04-22T01:35:10.850Z,23.15
2019-04-22T01:35:56.913Z,22.17
2019-04-22T01:36:33.442Z,19.85
2019-04-22T01:37:07.745Z,25.88
2019-04-22T01:37:52.385Z,21.33
2019-04-22T01:38:31.600Z,20.55
2019-04-22T01:40:02.636Z,19.17
2019-04-22T01:40:42.985Z,20.68
2019-04-22T01:41:16.422Z,23.65
2019-04-22T01:42:04.185Z,24.25
2019-04-22T01:42:43.219Z,21.05
2019-04-22T01:43:21.261Z,24.35
2019-04-22T01:44:10.504Z,20.12
2019-04-22T01:44:42.134Z,22.40
2019-04-22T01:45:22.616Z,21.30
2019-04-22T01:46:06.325Z,19.05
2019-04-22T01:46:42.645Z,20.85
2019-04-22T01:47:18.582Z,20.45
2019-04-22T01:47:55.372Z,23.67
2019-04-22T01:48:40.587Z,20.92
2019-04-22T01:49:23.693Z,19.10
2019-04-22T01:50:04.267Z,19.70
2019-04-22T01:50:36.837Z,22.42
2019-04-22T01:51:12.462Z,21.15
2019-04-22T01:51:58.418Z,19.70
2019-04-22T01:52:39.346Z,22.45
2019-04-22T01:53:16.427Z,22.30
2019-04-22T01:53:58.454Z,22.00
2019-04-22T01:54:52.158Z,19.30
2019-04-22T01:55:18.902Z,20.43
2019-04-22T01:55:53.357Z,17.35
2019-04-22T01:56:37.946Z,21.80
2019-04-22T01:57:15.910Z,19.50
2019-04-22T01:57:50.015Z,17.67
2019-04-22T01:58:26.247Z,16.55
2019-04-22T01:59:06.326Z,19.48
2019-04-22T01:59:47.222Z,19.25
2019-04-22T02:00:35.903Z,21.57
2019-04-22T02:01:13.629Z,19.40
2019-04-22T02:01:52.503Z,21.57
2019-04-22T02:02:30.342Z,22.30
2019-04-22T02:03:12.888Z,24.35
2019-04-22T02:03:56.154Z,22.85
2019-04-22T02:04:33.585Z,19.23
2019-04-22T02:05:12.252Z,19.37
2019-04-22T02:05:43.596Z,19.02
2019-04-22T02:06:30.641Z,19.42
2019-04-22T02:07:10.684Z,20.65
2019-04-22T02:07:42.559Z,18.87
2019-04-22T02:08:31.383Z,19.40
2019-04-22T02:09:09.437Z,26.23
2019-04-22T02:09:47.522Z,32.53
2019-04-22T02:10:30.681Z,26.50
2019-04-22T02:11:07.681Z,25.20
2019-04-22T02:11:54.722Z,22.07
2019-04-22T02:12:30.827Z,17.73
2019-04-22T02:13:08.287Z,18.80
2019-04-22T02:13:49.552Z,24.72
2019-04-22T02:14:30.351Z,19.98
2019-04-22T02:15:06.591Z,26.02
2019-04-22T02:15:50.533Z,21.23
2019-04-22T02:16:21.445Z,23.02
2019-04-22T02:17:02.328Z,19.60
2019-04-22T02:17:47.771Z,27.60
2019-04-22T02:18:23.158Z,20.15
2019-04-22T02:19:01.180Z,24.52
2019-04-22T02:20:23.874Z,21.50
2019-04-22T02:20:54.903Z,21.75
2019-04-22T02:21:35.705Z,25.05
2019-04-22T02:22:19.095Z,19.90
2019-04-22T02:23:45.875Z,23.25
2019-04-22T02:24:02.408Z,23.25
2019-04-22T02:24:49.091Z,22.85
2019-04-22T02:25:23.984Z,21.33
2019-04-22T02:26:41.698Z,23.02
2019-04-22T02:27:28.750Z,28.45
2019-04-22T02:28:07.839Z,21.57
2019-04-22T02:29:27.300Z,24.47
2019-04-22T02:29:57.879Z,23.07
2019-04-22T02:31:01.959Z,21.05
2019-04-22T02:32:19.379Z,25.57
2019-04-22T02:33:06.018Z,23.95
2019-04-22T02:33:54.822Z,24.07
2019-04-22T02:34:13.907Z,23.67
2019-04-22T02:35:03.733Z,25.25
2019-04-22T02:35:36.606Z,24.85
2019-04-22T02:36:41.083Z,23.35
2019-04-22T02:37:24.946Z,21.77
2019-04-22T02:38:14.022Z,22.73
2019-04-22T02:40:03.519Z,23.38
2019-04-22T02:40:58.459Z,28.07
2019-04-22T02:42:09.494Z,18.65
2019-04-22T02:42:36.746Z,23.02
2019-04-22T02:43:34.037Z,21.17
2019-04-22T02:44:12.116Z,21.70
2019-04-22T02:45:33.001Z,25.05
2019-04-22T02:46:54.714Z,24.05
2019-04-22T02:48:15.809Z,24.55
2019-04-22T02:48:53.404Z,21.07
2019-04-22T02:50:02.471Z,24.87
2019-04-22T02:50:40.913Z,21.55
2019-04-22T02:51:52.198Z,22.42
2019-04-22T02:52:40.519Z,19.48
2019-04-22T02:53:29.794Z,21.23
2019-04-22T02:55:15.563Z,19.57
2019-04-22T02:56:02.252Z,19.12
2019-04-22T02:57:28.024Z,19.15
2019-04-22T02:57:47.343Z,24.57
2019-04-22T02:58:52.282Z,21.23
2019-04-22T02:59:57.349Z,21.68
2019-04-22T03:02:43.854Z,23.10
2019-04-22T03:03:21.055Z,22.30
2019-04-22T03:05:08.920Z,18.57
2019-04-22T03:05:59.265Z,23.40
2019-04-22T03:06:59.774Z,23.87
2019-04-22T03:07:53.699Z,19.40
2019-04-22T03:08:30.283Z,18.87
2019-04-22T03:09:40.340Z,20.55
2019-04-22T03:10:29.890Z,22.85
2019-04-22T03:11:47.696Z,20.68
2019-04-22T03:12:26.983Z,18.37
2019-04-22T03:13:00.434Z,23.85
2019-04-22T03:13:46.815Z,24.15
2019-04-22T03:14:37.581Z,19.87
2019-04-22T03:14:53.484Z,22.40
2019-04-22T03:15:42.571Z,21.25
2019-04-22T03:16:59.755Z,21.80
2019-04-22T03:20:58.245Z,25.97
2019-04-22T03:22:16.168Z,23.22
2019-04-22T03:23:49.523Z,24.20
2019-04-22T03:24:23.680Z,21.55
2019-04-22T03:26:58.984Z,26.50
2019-04-22T03:27:30.131Z,24.20
2019-04-22T03:28:16.506Z,27.70
2019-04-22T03:28:51.775Z,23.92
2019-04-22T03:31:03.377Z,20.50
2019-04-22T03:34:22.647Z,25.25
2019-04-22T03:35:19.263Z,24.82
2019-04-22T03:36:54.975Z,25.12
2019-04-22T03:37:10.865Z,23.22
2019-04-22T03:38:19.850Z,21.40
2019-04-22T03:40:16.288Z,23.45
2019-04-22T03:40:54.839Z,20.97
2019-04-22T03:41:54.405Z,25.77
2019-04-22T03:43:35.692Z,26.23
2019-04-22T03:45:00.638Z,38.78
2019-04-22T03:46:02.018Z,25.10
2019-04-22T03:47:38.712Z,25.72
2019-04-22T03:48:05.276Z,24.00
2019-04-22T03:48:45.863Z,26.95
2019-04-22T03:51:11.978Z,24.10
2019-04-22T03:52:20.372Z,27.67
2019-04-22T03:53:15.175Z,21.05
2019-04-22T03:53:45.351Z,22.98
2019-04-22T03:54:29.752Z,22.95
2019-04-22T03:55:41.341Z,24.00
2019-04-22T03:56:36.551Z,22.07
2019-04-22T03:58:05.303Z,22.82
2019-04-22T03:59:00.613Z,20.23
2019-04-22T04:03:35.580Z,27.22
2019-04-22T04:04:15.450Z,20.17
2019-04-22T04:04:49.483Z,20.68
2019-04-22T04:06:08.071Z,20.20
2019-04-22T04:06:59.289Z,19.85
2019-04-22T04:07:45.579Z,21.60
2019-04-22T04:08:51.796Z,20.52
2019-04-22T04:09:33.307Z,27.62
2019-04-22T04:10:19.815Z,21.55
2019-04-22T04:10:50.181Z,19.80
2019-04-22T04:11:32.094Z,28.05
2019-04-22T04:13:39.440Z,21.70
2019-04-22T04:14:12.314Z,22.98
2019-04-22T04:15:08.685Z,19.30
2019-04-22T04:15:23.677Z,23.32
2019-04-22T04:15:55.892Z,17.40
2019-04-22T04:16:52.135Z,22.37
2019-04-22T04:17:28.916Z,19.85
2019-04-22T04:17:56.716Z,19.98
2019-04-22T04:18:46.875Z,19.48
2019-04-22T04:19:23.373Z,20.30
2019-04-22T04:20:44.771Z,23.67
2019-04-22T04:22:11.126Z,19.73
2019-04-22T04:22:52.196Z,17.85
2019-04-22T04:24:11.222Z,22.20
2019-04-22T04:25:38.082Z,17.85
2019-04-22T04:25:54.296Z,20.27
2019-04-22T04:28:53.223Z,17.27
2019-04-22T04:29:36.062Z,19.02
2019-04-22T04:30:29.076Z,20.15
2019-04-22T04:33:35.924Z,19.60
2019-04-22T04:34:03.678Z,18.65
2019-04-22T04:36:02.610Z,16.57
2019-04-22T04:36:50.394Z,26.25
2019-04-22T04:38:51.753Z,21.85
2019-04-22T04:39:22.105Z,19.30
2019-04-22T04:40:05.668Z,19.48
2019-04-22T04:40:37.708Z,18.55
2019-04-22T04:41:25.014Z,15.83
2019-04-22T04:44:12.777Z,20.17
2019-04-22T04:44:50.879Z,22.40
2019-04-22T04:45:36.638Z,20.77
2019-04-22T04:45:59.494Z,16.97
2019-04-22T04:47:30.994Z,16.27
2019-04-22T04:47:54.537Z,21.93
2019-04-22T04:49:26.083Z,18.05
2019-04-22T04:49:57.343Z,16.27
2019-04-22T04:50:42.206Z,17.02
2019-04-22T04:51:55.635Z,19.20
2019-04-22T04:53:58.269Z,16.83
2019-04-22T04:55:49.057Z,20.02
2019-04-22T04:57:09.386Z,19.73
2019-04-22T04:58:04.432Z,18.12
2019-04-22T04:58:53.884Z,17.82
2019-04-22T05:00:28.077Z,22.30
2019-04-22T05:01:10.859Z,22.95
2019-04-22T05:02:35.567Z,17.70
2019-04-22T05:03:49.289Z,23.47
2019-04-22T05:05:12.345Z,19.40
2019-04-22T05:05:39.549Z,19.25
2019-04-22T05:06:30.805Z,17.30
2019-04-22T05:08:31.342Z,17.90
2019-04-22T05:09:11.694Z,18.97
2019-04-22T05:11:01.044Z,18.27
2019-04-22T05:12:29.150Z,19.50
2019-04-22T05:13:43.256Z,17.53
2019-04-22T05:14:24.052Z,19.20
2019-04-22T05:16:04.956Z,18.90
2019-04-22T05:16:32.375Z,21.70
2019-04-22T05:17:52.778Z,16.93
2019-04-22T05:18:28.965Z,19.47
2019-04-22T05:19:07.631Z,16.43
2019-04-22T05:19:37.534Z,17.00
2019-04-22T05:20:33.742Z,19.83
2019-04-22T05:21:40.723Z,20.47
2019-04-22T05:22:20.729Z,17.60
2019-04-22T05:23:16.200Z,19.30
2019-04-22T05:23:48.855Z,14.80
2019-04-22T05:24:24.284Z,17.77
2019-04-22T05:25:04.729Z,20.40
2019-04-22T05:25:32.309Z,17.53
2019-04-22T05:26:31.002Z,16.97
2019-04-22T05:27:05.779Z,19.23
2019-04-22T05:27:39.833Z,21.10
2019-04-22T05:28:16.091Z,16.60
2019-04-22T05:28:57.913Z,16.90
2019-04-22T05:29:56.575Z,16.00
2019-04-22T05:30:55.689Z,16.30
2019-04-22T05:31:38.909Z,19.23
2019-04-22T05:32:11.987Z,15.93
2019-04-22T05:32:52.150Z,16.43
2019-04-22T05:33:30.591Z,15.67
2019-04-22T05:34:13.244Z,18.27
2019-04-22T05:34:48.400Z,18.80
2019-04-22T05:35:26.271Z,18.93
2019-04-22T05:36:07.499Z,14.23
2019-04-22T05:36:48.302Z,17.30
2019-04-22T05:37:28.305Z,17.87
2019-04-22T05:38:09.810Z,16.93
2019-04-22T05:38:48.782Z,18.27
2019-04-22T05:39:17.247Z,16.93
2019-04-22T05:40:06.175Z,16.40
2019-04-22T05:40:34.667Z,14.13
2019-04-22T05:41:27.227Z,15.30
2019-04-22T05:42:07.553Z,16.13
2019-04-22T05:42:39.500Z,17.63
2019-04-22T05:43:21.264Z,13.57
2019-04-22T05:44:03.246Z,15.70
2019-04-22T05:44:41.254Z,15.40
2019-04-22T05:45:21.641Z,14.63
2019-04-22T05:46:00.577Z,18.70
2019-04-22T05:46:34.485Z,17.97
2019-04-22T05:47:14.854Z,13.73
2019-04-22T05:47:57.501Z,15.53
2019-04-22T05:48:41.626Z,15.07
2019-04-22T05:49:48.596Z,14.17
2019-04-22T05:50:29.499Z,17.43
2019-04-22T05:51:12.226Z,15.73
2019-04-22T05:51:50.685Z,15.63
2019-04-22T05:52:24.855Z,15.20
2019-04-22T05:53:19.481Z,15.40
2019-04-22T05:53:49.048Z,15.53
2019-04-22T05:54:27.823Z,16.70
2019-04-22T05:55:09.267Z,16.67
2019-04-22T05:55:51.770Z,20.80
2019-04-22T05:56:33.892Z,16.10
2019-04-22T05:57:00.817Z,18.13
2019-04-22T05:57:38.319Z,15.07
2019-04-22T05:58:24.315Z,15.93
2019-04-22T06:00:21.771Z,15.40
2019-04-22T06:01:34.361Z,19.20
2019-04-22T06:02:37.789Z,15.40
2019-04-22T06:03:01.563Z,17.70
2019-04-22T06:03:52.872Z,15.43
2019-04-22T06:04:27.080Z,17.30
2019-04-22T06:05:06.606Z,16.90
2019-04-22T06:05:43.893Z,16.53
2019-04-22T06:07:00.422Z,19.80
2019-04-22T06:07:41.801Z,17.40
2019-04-22T06:08:24.080Z,14.93
2019-04-22T06:09:10.612Z,17.57
2019-04-22T06:09:39.137Z,17.37
2019-04-22T06:10:33.403Z,13.83
2019-04-22T06:11:09.890Z,16.27
2019-04-22T06:11:33.947Z,18.90
2019-04-22T06:12:17.110Z,13.40
2019-04-22T06:12:56.245Z,15.67
2019-04-22T06:13:40.451Z,13.83
2019-04-22T06:14:22.989Z,14.07
2019-04-22T06:15:10.028Z,17.63
2019-04-22T06:15:38.931Z,13.33
2019-04-22T06:16:29.184Z,16.10
2019-04-22T06:17:03.649Z,18.87
2019-04-22T06:17:55.062Z,16.53
2019-04-22T06:18:28.778Z,16.10
2019-04-22T06:19:07.550Z,14.90
2019-04-22T06:19:44.167Z,13.33
2019-04-22T06:20:21.947Z,15.90
2019-04-22T06:21:07.125Z,16.27
2019-04-22T06:21:44.069Z,14.63
2019-04-22T06:22:34.299Z,17.33
2019-04-22T06:23:06.146Z,16.07
2019-04-22T06:24:26.094Z,17.30
2019-04-22T06:25:00.954Z,15.58
2019-04-22T06:26:31.270Z,16.65
2019-04-22T06:27:01.654Z,14.30
2019-04-22T06:27:34.888Z,17.02
2019-04-22T06:28:22.028Z,16.07
2019-04-22T06:28:54.746Z,14.43
2019-04-22T06:29:30.114Z,16.05
2019-04-22T06:30:15.341Z,17.00
2019-04-22T06:30:57.602Z,13.47
2019-04-22T06:31:43.246Z,18.23
2019-04-22T06:32:56.863Z,13.17
2019-04-22T06:33:34.813Z,14.13
2019-04-22T06:34:17.670Z,17.57
2019-04-22T06:35:07.971Z,15.33
2019-04-22T06:35:36.757Z,13.93
2019-04-22T06:36:17.987Z,19.37
2019-04-22T06:37:03.038Z,14.77
2019-04-22T06:37:41.988Z,15.90
2019-04-22T06:38:46.285Z,14.13
2019-04-22T06:39:34.331Z,18.70
2019-04-22T06:40:15.418Z,15.43
2019-04-22T06:41:00.410Z,13.80
2019-04-22T06:41:31.697Z,16.62
2019-04-22T06:42:56.571Z,13.00
2019-04-22T06:43:33.792Z,14.20
2019-04-22T06:44:10.866Z,16.17
2019-04-22T06:44:48.251Z,21.15
2019-04-22T06:45:23.502Z,13.47
2019-04-22T06:46:02.403Z,17.33
2019-04-22T06:46:47.974Z,17.17
2019-04-22T06:47:44.075Z,15.07
2019-04-22T06:48:39.815Z,13.13
2019-04-22T06:49:33.430Z,16.70
2019-04-22T06:50:08.045Z,16.63
2019-04-22T06:50:50.709Z,15.77
2019-04-22T06:51:32.785Z,15.07
2019-04-22T06:52:14.178Z,16.47
2019-04-22T06:52:52.407Z,15.53
2019-04-22T06:53:30.728Z,13.07
2019-04-22T06:54:07.287Z,14.63
2019-04-22T06:54:49.028Z,18.50
2019-04-22T06:55:30.756Z,12.93
2019-04-22T06:56:00.110Z,13.80
2019-04-22T06:56:45.553Z,23.10
2019-04-22T06:57:19.646Z,13.00
2019-04-22T06:58:00.107Z,13.85
2019-04-22T06:58:39.485Z,15.55
2019-04-22T06:59:18.388Z,17.53
2019-04-22T07:00:00.426Z,14.37
2019-04-22T07:01:24.275Z,13.80
2019-04-22T07:02:47.148Z,17.03
2019-04-22T07:03:53.636Z,13.03
2019-04-22T07:04:36.460Z,14.27
2019-04-22T07:05:14.367Z,12.90
2019-04-22T07:05:52.583Z,13.37
2019-04-22T07:06:37.255Z,13.15
2019-04-22T07:07:13.509Z,16.57
2019-04-22T07:07:53.349Z,14.97
2019-04-22T07:09:48.694Z,14.00
2019-04-22T07:10:34.968Z,12.77
2019-04-22T07:11:04.665Z,13.73
2019-04-22T07:11:45.100Z,11.53
2019-04-22T07:12:24.703Z,10.10
2019-04-22T07:13:01.567Z,9.77
2019-04-22T07:13:49.089Z,11.60
2019-04-22T07:14:18.650Z,11.63
2019-04-22T07:15:03.022Z,11.40
2019-04-22T07:15:50.334Z,8.50
2019-04-22T07:17:03.761Z,14.83
2019-04-22T07:17:52.227Z,11.50
2019-04-22T07:19:02.203Z,10.40
2019-04-22T07:20:24.163Z,11.10
2019-04-22T07:21:04.361Z,12.60
2019-04-22T07:21:46.931Z,12.07
2019-04-22T07:22:26.028Z,13.90
2019-04-22T07:23:03.634Z,12.57
2019-04-22T07:23:38.617Z,12.90
2019-04-22T07:24:57.226Z,14.50
2019-04-22T07:25:15.968Z,14.47
2019-04-22T07:25:52.432Z,12.80
2019-04-22T07:26:54.335Z,12.33
2019-04-22T07:27:14.661Z,14.97
2019-04-22T07:27:52.368Z,13.63
2019-04-22T07:28:49.110Z,10.60
2019-04-22T07:29:14.335Z,11.37
2019-04-22T07:29:55.769Z,11.20
2019-04-22T07:30:31.325Z,13.00
2019-04-22T07:31:11.339Z,13.23
2019-04-22T07:31:57.440Z,15.13
2019-04-22T07:32:53.358Z,13.30
2019-04-22T07:33:27.873Z,14.53
2019-04-22T07:34:08.180Z,20.13
2019-04-22T07:34:50.330Z,12.50
2019-04-22T07:35:15.136Z,11.73
2019-04-22T07:36:00.574Z,14.93
2019-04-22T07:37:43.897Z,11.60
2019-04-22T07:38:26.364Z,11.97
2019-04-22T07:39:10.575Z,13.50
2019-04-22T07:39:45.922Z,12.93
2019-04-22T07:40:37.380Z,10.73
2019-04-22T07:41:05.523Z,8.03
2019-04-22T07:42:10.649Z,11.73
2019-04-22T07:42:43.189Z,9.47
2019-04-22T07:43:29.180Z,12.13
2019-04-22T07:44:16.605Z,10.73
2019-04-22T07:44:51.081Z,12.20
2019-04-22T07:45:29.624Z,13.03
2019-04-22T07:46:10.963Z,8.90
2019-04-22T07:47:00.959Z,10.80
2019-04-22T07:47:36.049Z,11.30
2019-04-22T07:48:22.595Z,11.17
2019-04-22T07:48:51.846Z,9.47
2019-04-22T07:49:33.788Z,10.90
2019-04-22T07:50:17.058Z,11.13
2019-04-22T07:51:33.153Z,10.73
2019-04-22T07:52:11.101Z,9.80
2019-04-22T07:52:44.963Z,12.90
2019-04-22T07:53:25.928Z,9.73
2019-04-22T07:54:11.169Z,7.47
2019-04-22T07:54:52.405Z,12.47
2019-04-22T07:55:27.316Z,12.10
2019-04-22T07:56:05.103Z,10.27
2019-04-22T07:56:50.723Z,9.93
2019-04-22T07:57:44.507Z,11.57
2019-04-22T07:58:17.082Z,16.23
2019-04-22T07:58:58.696Z,9.30
2019-04-22T07:59:40.386Z,10.60
2019-04-22T08:00:28.105Z,8.57
2019-04-22T08:01:07.197Z,9.80
2019-04-22T08:01:36.639Z,7.53
2019-04-22T08:02:16.188Z,9.50
2019-04-22T08:03:01.582Z,14.60
2019-04-22T08:03:37.672Z,8.70
2019-04-22T08:04:23.167Z,8.27
2019-04-22T08:05:48.279Z,17.40
2019-04-22T08:06:17.286Z,14.23
2019-04-22T08:06:58.828Z,9.30
2019-04-22T08:07:50.531Z,9.70
2019-04-22T08:08:19.672Z,8.53
2019-04-22T08:08:56.232Z,9.53
2019-04-22T08:10:27.022Z,10.07
2019-04-22T08:10:59.427Z,10.33
2019-04-22T08:11:43.759Z,7.63
2019-04-22T08:12:12.080Z,10.83
2019-04-22T08:12:54.494Z,6.97
2019-04-22T08:14:14.414Z,10.27
2019-04-22T08:14:52.153Z,10.83
2019-04-22T08:15:41.472Z,6.60
2019-04-22T08:16:16.522Z,10.23
2019-04-22T08:17:01.545Z,7.77
2019-04-22T08:18:17.863Z,10.57
2019-04-22T08:19:04.205Z,9.23
2019-04-22T08:19:36.938Z,7.90
2019-04-22T08:20:19.261Z,5.90
2019-04-22T08:20:56.576Z,6.07
2019-04-22T08:21:38.340Z,6.87
2019-04-22T08:22:20.035Z,7.43
2019-04-22T08:23:02.858Z,6.40
2019-04-22T08:23:37.864Z,7.73
2019-04-22T08:24:18.065Z,6.00
2019-04-22T08:24:57.737Z,5.30
2019-04-22T08:25:36.759Z,7.13
2019-04-22T08:26:16.787Z,7.67
2019-04-22T08:26:56.435Z,6.30
2019-04-22T08:27:33.464Z,6.37
2019-04-22T08:28:13.461Z,6.10
2019-04-22T08:28:55.784Z,5.50
2019-04-22T08:30:48.937Z,7.47
2019-04-22T08:31:32.050Z,7.93
2019-04-22T08:32:05.028Z,12.50
2019-04-22T08:32:45.740Z,8.60
2019-04-22T08:33:29.375Z,8.10
2019-04-22T08:34:08.213Z,7.37
2019-04-22T08:34:44.792Z,13.73
2019-04-22T08:37:12.180Z,9.23
2019-04-22T08:38:37.784Z,10.27
2019-04-22T08:39:25.219Z,9.77
2019-04-22T08:40:08.861Z,8.77
2019-04-22T08:40:47.160Z,8.73
2019-04-22T08:41:57.612Z,7.10
2019-04-22T08:42:50.297Z,9.27
2019-04-22T08:43:26.816Z,8.13
2019-04-22T08:44:02.447Z,6.93
2019-04-22T08:45:04.912Z,5.27
2019-04-22T08:45:30.032Z,8.80
2019-04-22T08:46:10.928Z,11.03
2019-04-22T08:47:29.455Z,8.13
2019-04-22T08:47:54.821Z,7.87
2019-04-22T08:48:37.054Z,7.27
2019-04-22T08:49:18.918Z,10.63
2019-04-22T08:50:02.457Z,6.47
2019-04-22T08:50:39.476Z,9.80
2019-04-22T08:51:20.974Z,8.47
2019-04-22T08:52:03.908Z,7.00
2019-04-22T08:52:50.239Z,6.43
2019-04-22T08:53:29.187Z,9.03
2019-04-22T08:54:18.338Z,10.90
2019-04-22T08:55:04.780Z,6.63
2019-04-22T08:55:47.811Z,7.90
2019-04-22T08:56:37.613Z,5.80
2019-04-22T08:57:07.336Z,7.23
2019-04-22T08:58:03.244Z,5.27
2019-04-22T08:58:29.490Z,7.70
2019-04-22T08:59:46.639Z,8.33
2019-04-22T09:00:21.480Z,5.00
2019-04-22T09:01:32.663Z,8.10
2019-04-22T09:02:19.819Z,6.80
2019-04-22T09:03:00.637Z,8.63
2019-04-22T09:03:39.752Z,6.40
2019-04-22T09:04:11.968Z,7.07
2019-04-22T09:04:56.003Z,6.90
2019-04-22T09:06:04.874Z,7.07
2019-04-22T09:07:20.251Z,7.80
2019-04-22T09:07:52.058Z,11.73
2019-04-22T09:08:34.056Z,8.13
2019-04-22T09:09:11.430Z,7.93
2019-04-22T09:09:53.643Z,7.53
2019-04-22T09:10:36.232Z,11.83
2019-04-22T09:11:18.472Z,5.93
2019-04-22T09:11:54.350Z,7.60
2019-04-22T09:12:46.966Z,7.53
2019-04-22T09:13:05.894Z,6.20
2019-04-22T09:13:50.624Z,5.97
2019-04-22T09:15:13.252Z,9.37
2019-04-22T09:15:49.626Z,5.90
2019-04-22T09:16:31.829Z,6.23
2019-04-22T09:17:13.681Z,11.70
2019-04-22T09:17:47.714Z,8.77
2019-04-22T09:18:28.437Z,8.17
2019-04-22T09:19:08.242Z,7.00
2019-04-22T09:19:42.541Z,5.07
2019-04-22T09:20:21.944Z,4.77
2019-04-22T09:21:45.479Z,4.20
2019-04-22T09:22:19.680Z,9.23
2019-04-22T09:23:02.699Z,9.03
2019-04-22T09:23:44.446Z,4.57
2019-04-22T09:24:16.075Z,6.33
2019-04-22T09:25:06.729Z,6.40
2019-04-22T09:26:15.456Z,7.50
2019-04-22T09:26:54.449Z,5.00
2019-04-22T09:27:39.875Z,7.73
2019-04-22T09:28:20.085Z,8.10
2019-04-22T09:28:59.502Z,4.53
2019-04-22T09:29:41.580Z,5.47
2019-04-22T09:30:17.045Z,6.67
2019-04-22T09:31:17.658Z,7.33
2019-04-22T09:31:42.335Z,5.03
2019-04-22T09:32:58.752Z,5.87
2019-04-22T09:33:32.239Z,5.03
2019-04-22T09:34:06.949Z,6.13
2019-04-22T09:35:02.735Z,8.50
2019-04-22T09:35:31.989Z,5.50
2019-04-22T09:36:21.178Z,6.33
2019-04-22T09:36:50.487Z,7.23
2019-04-22T09:37:34.150Z,6.60
2019-04-22T09:38:23.751Z,7.00
2019-04-22T09:39:32.580Z,7.57
2019-04-22T09:40:50.346Z,10.00
2019-04-22T09:41:27.462Z,7.40
2019-04-22T09:42:07.930Z,7.40
2019-04-22T09:42:45.449Z,4.50
2019-04-22T09:43:24.056Z,4.17
2019-04-22T09:44:10.190Z,6.50
2019-04-22T09:44:41.727Z,4.77
2019-04-22T09:45:15.496Z,4.37
2019-04-22T09:46:04.397Z,5.70
2019-04-22T09:46:44.070Z,5.60
2019-04-22T09:47:19.673Z,7.40
2019-04-22T09:48:00.853Z,5.00
2019-04-22T09:49:19.625Z,4.90
2019-04-22T09:51:11.592Z,4.90
2019-04-22T09:51:52.141Z,5.93
2019-04-22T09:52:35.836Z,5.20
2019-04-22T09:53:20.101Z,4.20
2019-04-22T09:54:01.182Z,6.83
2019-04-22T09:54:45.205Z,5.60
2019-04-22T09:55:12.421Z,4.90
2019-04-22T09:55:55.110Z,7.50
2019-04-22T09:56:32.162Z,4.20
2019-04-22T09:57:09.489Z,3.80
2019-04-22T09:57:46.284Z,4.17
2019-04-22T09:58:31.680Z,5.57
2019-04-22T09:59:07.574Z,5.87
2019-04-22T10:00:10.956Z,5.90
2019-04-22T10:01:18.805Z,7.93
2019-04-22T10:01:59.386Z,7.47
2019-04-22T10:03:11.552Z,5.50
2019-04-22T10:03:51.686Z,5.47
2019-04-22T10:04:29.118Z,7.63
2019-04-22T10:05:09.418Z,5.47
2019-04-22T10:05:49.944Z,5.93
2019-04-22T10:06:39.603Z,4.73
2019-04-22T10:07:13.850Z,4.70
2019-04-22T10:07:45.027Z,6.40
2019-04-22T10:08:31.991Z,4.33
2019-04-22T10:10:21.890Z,4.10
2019-04-22T10:11:04.702Z,5.83
2019-04-22T10:11:50.967Z,5.50
2019-04-22T10:13:12.935Z,3.70
2019-04-22T10:13:54.210Z,6.47
2019-04-22T10:15:13.853Z,6.50
2019-04-22T10:16:00.454Z,8.40
2019-04-22T10:16:37.095Z,6.03
2019-04-22T10:17:12.359Z,4.80
2019-04-22T10:17:49.670Z,7.03
2019-04-22T10:18:34.030Z,7.23
2019-04-22T10:19:11.899Z,5.17
2019-04-22T10:20:08.976Z,5.57
2019-04-22T10:20:31.427Z,4.40
2019-04-22T10:21:14.450Z,6.40
2019-04-22T10:21:54.472Z,8.77
2019-04-22T10:22:32.326Z,8.80
2019-04-22T10:23:05.499Z,6.27
2019-04-22T10:23:48.457Z,6.90
2019-04-22T10:24:26.736Z,7.00
2019-04-22T10:25:11.466Z,5.40
2019-04-22T10:25:54.170Z,7.63
2019-04-22T10:26:33.438Z,4.40
2019-04-22T10:27:06.002Z,8.77
2019-04-22T10:27:49.431Z,8.10
2019-04-22T10:28:32.371Z,6.63
2019-04-22T10:29:09.188Z,4.50
2019-04-22T10:29:47.411Z,7.40
2019-04-22T10:30:33.335Z,7.60
2019-04-22T10:30:59.989Z,4.93